sensor_id;sensor_type;location;lat;lon;timestamp;temperature;humidity
69464;DHT22;56665;41.106;16.688;2022-09-09T00:04:44;26.84;78.60
69464;DHT22;56665;41.106;16.688;2022-09-09T00:07:52;26.78;78.69
69464;DHT22;56665;41.106;16.688;2022-09-09T00:10:59;26.78;78.84
69464;DHT22;56665;41.106;16.688;2022-09-09T00:14:13;26.75;78.79
69464;DHT22;56665;41.106;16.688;2022-09-09T00:23:58;26.67;79.07
69464;DHT22;56665;41.106;16.688;2022-09-09T00:27:11;26.65;79.14
69464;DHT22;56665;41.106;16.688;2022-09-09T00:30:26;26.62;79.28
69464;DHT22;56665;41.106;16.688;2022-09-09T00:33:30;26.58;79.49
69464;DHT22;56665;41.106;16.688;2022-09-09T00:36:35;26.58;79.67
69464;DHT22;56665;41.106;16.688;2022-09-09T00:39:45;26.54;79.75
69464;DHT22;56665;41.106;16.688;2022-09-09T00:43:40;26.51;80.07
69464;DHT22;56665;41.106;16.688;2022-09-09T00:49:54;26.41;80.40
69464;DHT22;56665;41.106;16.688;2022-09-09T00:53:27;26.41;80.44
69464;DHT22;56665;41.106;16.688;2022-09-09T00:56:39;26.34;80.62
69464;DHT22;56665;41.106;16.688;2022-09-09T00:59:48;26.34;80.67
69464;DHT22;56665;41.106;16.688;2022-09-09T01:06:34;26.34;80.76
69464;DHT22;56665;41.106;16.688;2022-09-09T01:09:54;26.29;80.85
69464;DHT22;56665;41.106;16.688;2022-09-09T01:13:01;26.26;80.80
69464;DHT22;56665;41.106;16.688;2022-09-09T01:16:10;26.24;80.96
69464;DHT22;56665;41.106;16.688;2022-09-09T01:19:27;26.21;80.96
69464;DHT22;56665;41.106;16.688;2022-09-09T01:29:24;26.19;81.21
69464;DHT22;56665;41.106;16.688;2022-09-09T01:32:46;26.16;81.31
69464;DHT22;56665;41.106;16.688;2022-09-09T01:35:58;26.10;81.42
69464;DHT22;56665;41.106;16.688;2022-09-09T01:39:08;26.12;81.36
69464;DHT22;56665;41.106;16.688;2022-09-09T01:42:15;26.04;81.58
69464;DHT22;56665;41.106;16.688;2022-09-09T01:45:19;26.02;81.53
69464;DHT22;56665;41.106;16.688;2022-09-09T01:48:24;26.00;81.64
69464;DHT22;56665;41.106;16.688;2022-09-09T01:51:39;25.97;81.76
69464;DHT22;56665;41.106;16.688;2022-09-09T01:54:47;25.97;81.82
69464;DHT22;56665;41.106;16.688;2022-09-09T01:58:28;25.94;81.91
69464;DHT22;56665;41.106;16.688;2022-09-09T02:01:57;25.92;82.02
69464;DHT22;56665;41.106;16.688;2022-09-09T02:08:45;25.90;82.19
69464;DHT22;56665;41.106;16.688;2022-09-09T02:11:55;25.86;82.25
69464;DHT22;56665;41.106;16.688;2022-09-09T02:15:26;25.83;82.21
69464;DHT22;56665;41.106;16.688;2022-09-09T02:22:06;25.81;82.47
69464;DHT22;56665;41.106;16.688;2022-09-09T02:25:13;25.78;82.50
69464;DHT22;56665;41.106;16.688;2022-09-09T02:28:21;25.75;82.61
69464;DHT22;56665;41.106;16.688;2022-09-09T02:31:27;25.72;82.71
69464;DHT22;56665;41.106;16.688;2022-09-09T02:34:42;25.71;82.71
69464;DHT22;56665;41.106;16.688;2022-09-09T02:37:46;25.73;82.67
69464;DHT22;56665;41.106;16.688;2022-09-09T02:40:50;25.72;82.71
69464;DHT22;56665;41.106;16.688;2022-09-09T02:43:55;25.66;82.89
69464;DHT22;56665;41.106;16.688;2022-09-09T02:50:23;25.66;82.95
69464;DHT22;56665;41.106;16.688;2022-09-09T02:53:42;25.69;82.92
69464;DHT22;56665;41.106;16.688;2022-09-09T02:56:51;25.66;82.79
69464;DHT22;56665;41.106;16.688;2022-09-09T02:59:59;25.69;82.89
69464;DHT22;56665;41.106;16.688;2022-09-09T03:03:04;25.69;82.85
69464;DHT22;56665;41.106;16.688;2022-09-09T03:06:09;25.62;82.81
69464;DHT22;56665;41.106;16.688;2022-09-09T03:09:16;25.61;82.71
69464;DHT22;56665;41.106;16.688;2022-09-09T03:12:20;25.61;82.51
69464;DHT22;56665;41.106;16.688;2022-09-09T03:15:26;25.62;82.19
69464;DHT22;56665;41.106;16.688;2022-09-09T03:18:33;25.58;82.16
69464;DHT22;56665;41.106;16.688;2022-09-09T03:21:37;25.57;82.09
69464;DHT22;56665;41.106;16.688;2022-09-09T03:24:43;25.54;82.49
69464;DHT22;56665;41.106;16.688;2022-09-09T03:27:47;25.54;82.53
69464;DHT22;56665;41.106;16.688;2022-09-09T03:30:50;25.48;82.63
69464;DHT22;56665;41.106;16.688;2022-09-09T03:33:55;25.44;82.61
69464;DHT22;56665;41.106;16.688;2022-09-09T03:36:58;25.46;82.25
69464;DHT22;56665;41.106;16.688;2022-09-09T03:40:03;25.44;82.20
69464;DHT22;56665;41.106;16.688;2022-09-09T03:43:07;25.44;82.12
69464;DHT22;56665;41.106;16.688;2022-09-09T03:46:12;25.45;81.97
69464;DHT22;56665;41.106;16.688;2022-09-09T03:49:16;25.44;82.07
69464;DHT22;56665;41.106;16.688;2022-09-09T03:52:20;25.41;82.14
69464;DHT22;56665;41.106;16.688;2022-09-09T03:55:25;25.41;82.08
69464;DHT22;56665;41.106;16.688;2022-09-09T03:58:30;25.44;81.92
69464;DHT22;56665;41.106;16.688;2022-09-09T04:01:39;25.45;81.68
69464;DHT22;56665;41.106;16.688;2022-09-09T04:04:43;25.46;81.54
69464;DHT22;56665;41.106;16.688;2022-09-09T04:07:47;25.49;81.26
69464;DHT22;56665;41.106;16.688;2022-09-09T04:10:52;25.52;81.04
69464;DHT22;56665;41.106;16.688;2022-09-09T04:13:56;25.54;80.88
69464;DHT22;56665;41.106;16.688;2022-09-09T04:16:59;25.55;80.82
69464;DHT22;56665;41.106;16.688;2022-09-09T04:20:04;25.54;80.77
69464;DHT22;56665;41.106;16.688;2022-09-09T04:23:09;25.57;80.55
69464;DHT22;56665;41.106;16.688;2022-09-09T04:26:12;25.57;80.58
69464;DHT22;56665;41.106;16.688;2022-09-09T04:29:17;25.57;80.58
69464;DHT22;56665;41.106;16.688;2022-09-09T04:32:21;25.54;80.67
69464;DHT22;56665;41.106;16.688;2022-09-09T04:35:25;25.48;80.85
69464;DHT22;56665;41.106;16.688;2022-09-09T04:38:31;25.45;81.03
69464;DHT22;56665;41.106;16.688;2022-09-09T04:41:34;25.48;80.90
69464;DHT22;56665;41.106;16.688;2022-09-09T04:44:38;25.48;80.77
69464;DHT22;56665;41.106;16.688;2022-09-09T04:47:43;25.38;80.92
69464;DHT22;56665;41.106;16.688;2022-09-09T04:51:02;25.32;80.97
69464;DHT22;56665;41.106;16.688;2022-09-09T04:54:08;25.22;81.33
69464;DHT22;56665;41.106;16.688;2022-09-09T04:57:13;25.27;81.10
69464;DHT22;56665;41.106;16.688;2022-09-09T05:00:17;25.37;80.88
69464;DHT22;56665;41.106;16.688;2022-09-09T05:03:22;25.45;80.18
69464;DHT22;56665;41.106;16.688;2022-09-09T05:06:26;25.55;79.41
69464;DHT22;56665;41.106;16.688;2022-09-09T05:09:33;25.66;78.18
69464;DHT22;56665;41.106;16.688;2022-09-09T05:12:38;25.78;77.54
69464;DHT22;56665;41.106;16.688;2022-09-09T05:15:51;25.90;76.98
69464;DHT22;56665;41.106;16.688;2022-09-09T05:18:55;25.97;75.99
69464;DHT22;56665;41.106;16.688;2022-09-09T05:21:59;26.12;75.13
69464;DHT22;56665;41.106;16.688;2022-09-09T05:25:12;26.26;73.88
69464;DHT22;56665;41.106;16.688;2022-09-09T05:28:16;26.40;72.53
69464;DHT22;56665;41.106;16.688;2022-09-09T05:31:20;26.61;71.01
69464;DHT22;56665;41.106;16.688;2022-09-09T05:34:27;26.80;69.84
69464;DHT22;56665;41.106;16.688;2022-09-09T05:37:31;26.98;68.75
69464;DHT22;56665;41.106;16.688;2022-09-09T05:40:37;27.23;67.16
69464;DHT22;56665;41.106;16.688;2022-09-09T05:43:42;27.46;66.17
69464;DHT22;56665;41.106;16.688;2022-09-09T05:46:48;27.64;64.81
69464;DHT22;56665;41.106;16.688;2022-09-09T05:49:55;27.85;64.68
69464;DHT22;56665;41.106;16.688;2022-09-09T05:52:59;28.11;63.92
69464;DHT22;56665;41.106;16.688;2022-09-09T05:56:05;28.33;62.70
69464;DHT22;56665;41.106;16.688;2022-09-09T05:59:11;28.56;61.99
69464;DHT22;56665;41.106;16.688;2022-09-09T06:02:16;28.90;61.32
69464;DHT22;56665;41.106;16.688;2022-09-09T06:05:20;29.23;60.46
69464;DHT22;56665;41.106;16.688;2022-09-09T06:08:26;29.57;59.44
69464;DHT22;56665;41.106;16.688;2022-09-09T06:11:31;29.84;58.21
69464;DHT22;56665;41.106;16.688;2022-09-09T06:14:36;30.16;57.37
69464;DHT22;56665;41.106;16.688;2022-09-09T06:17:40;30.54;56.20
69464;DHT22;56665;41.106;16.688;2022-09-09T06:20:59;30.98;54.56
69464;DHT22;56665;41.106;16.688;2022-09-09T06:24:04;31.46;53.73
69464;DHT22;56665;41.106;16.688;2022-09-09T06:27:08;31.84;52.51
69464;DHT22;56665;41.106;16.688;2022-09-09T06:30:14;32.32;51.73
69464;DHT22;56665;41.106;16.688;2022-09-09T06:33:18;32.51;50.46
69464;DHT22;56665;41.106;16.688;2022-09-09T06:36:26;32.68;49.69
69464;DHT22;56665;41.106;16.688;2022-09-09T06:39:30;32.96;49.40
69464;DHT22;56665;41.106;16.688;2022-09-09T06:42:34;33.09;48.89
69464;DHT22;56665;41.106;16.688;2022-09-09T06:46:00;32.90;48.74
69464;DHT22;56665;41.106;16.688;2022-09-09T06:49:05;32.76;48.75
69464;DHT22;56665;41.106;16.688;2022-09-09T06:52:09;32.56;49.05
69464;DHT22;56665;41.106;16.688;2022-09-09T06:55:13;32.65;49.15
69464;DHT22;56665;41.106;16.688;2022-09-09T06:58:20;32.82;48.36
69464;DHT22;56665;41.106;16.688;2022-09-09T07:01:28;33.19;47.78
69464;DHT22;56665;41.106;16.688;2022-09-09T07:04:36;33.61;47.16
69464;DHT22;56665;41.106;16.688;2022-09-09T07:07:42;34.01;46.13
69464;DHT22;56665;41.106;16.688;2022-09-09T07:10:48;34.23;45.56
69464;DHT22;56665;41.106;16.688;2022-09-09T07:13:52;34.50;44.79
69464;DHT22;56665;41.106;16.688;2022-09-09T07:16:57;34.66;44.23
69464;DHT22;56665;41.106;16.688;2022-09-09T07:20:02;34.64;44.11
69464;DHT22;56665;41.106;16.688;2022-09-09T07:23:08;34.61;44.15
69464;DHT22;56665;41.106;16.688;2022-09-09T07:26:15;34.66;44.04
69464;DHT22;56665;41.106;16.688;2022-09-09T07:29:20;34.91;43.47
69464;DHT22;56665;41.106;16.688;2022-09-09T07:32:23;35.18;43.15
69464;DHT22;56665;41.106;16.688;2022-09-09T07:35:33;35.35;42.83
69464;DHT22;56665;41.106;16.688;2022-09-09T07:38:42;35.41;42.80
69464;DHT22;56665;41.106;16.688;2022-09-09T07:41:50;36.02;41.59
69464;DHT22;56665;41.106;16.688;2022-09-09T07:44:58;36.37;40.90
69464;DHT22;56665;41.106;16.688;2022-09-09T07:48:03;36.51;40.67
69464;DHT22;56665;41.106;16.688;2022-09-09T07:51:13;36.19;40.81
69464;DHT22;56665;41.106;16.688;2022-09-09T07:54:21;36.41;40.87
69464;DHT22;56665;41.106;16.688;2022-09-09T07:57:29;37.12;39.90
69464;DHT22;56665;41.106;16.688;2022-09-09T08:00:36;37.17;39.70
69464;DHT22;56665;41.106;16.688;2022-09-09T08:03:39;37.36;39.39
69464;DHT22;56665;41.106;16.688;2022-09-09T08:06:51;37.17;39.79
69464;DHT22;56665;41.106;16.688;2022-09-09T08:09:57;36.81;39.97
69464;DHT22;56665;41.106;16.688;2022-09-09T08:13:06;36.26;41.07
69464;DHT22;56665;41.106;16.688;2022-09-09T08:16:20;36.06;41.30
69464;DHT22;56665;41.106;16.688;2022-09-09T08:19:25;36.15;41.32
69464;DHT22;56665;41.106;16.688;2022-09-09T08:22:30;36.07;41.10
69464;DHT22;56665;41.106;16.688;2022-09-09T08:25:35;35.99;41.15
69464;DHT22;56665;41.106;16.688;2022-09-09T08:28:41;35.93;41.15
69464;DHT22;56665;41.106;16.688;2022-09-09T08:31:53;35.58;41.88
69464;DHT22;56665;41.106;16.688;2022-09-09T08:34:58;35.17;42.39
69464;DHT22;56665;41.106;16.688;2022-09-09T08:38:01;35.35;42.26
69464;DHT22;56665;41.106;16.688;2022-09-09T08:49:02;34.56;43.25
69464;DHT22;56665;41.106;16.688;2022-09-09T08:52:19;34.42;43.26
69464;DHT22;56665;41.106;16.688;2022-09-09T08:58:55;35.03;42.55
69464;DHT22;56665;41.106;16.688;2022-09-09T09:02:27;35.03;42.74
69464;DHT22;56665;41.106;16.688;2022-09-09T09:06:18;34.94;42.54
69464;DHT22;56665;41.106;16.688;2022-09-09T09:09:57;34.69;42.88
69464;DHT22;56665;41.106;16.688;2022-09-09T09:13:17;34.52;44.71
69464;DHT22;56665;41.106;16.688;2022-09-09T09:19:30;33.51;47.82
69464;DHT22;56665;41.106;16.688;2022-09-09T09:22:57;33.12;48.90
69464;DHT22;56665;41.106;16.688;2022-09-09T09:26:07;32.99;49.57
69464;DHT22;56665;41.106;16.688;2022-09-09T09:29:15;33.12;49.41
69464;DHT22;56665;41.106;16.688;2022-09-09T09:32:20;33.31;49.17
69464;DHT22;56665;41.106;16.688;2022-09-09T09:35:26;33.51;48.85
69464;DHT22;56665;41.106;16.688;2022-09-09T09:38:29;34.29;47.77
69464;DHT22;56665;41.106;16.688;2022-09-09T09:41:39;34.86;47.02
69464;DHT22;56665;41.106;16.688;2022-09-09T09:44:46;35.35;46.41
69464;DHT22;56665;41.106;16.688;2022-09-09T09:48:01;35.84;45.75
69464;DHT22;56665;41.106;16.688;2022-09-09T09:51:13;35.03;46.65
69464;DHT22;56665;41.106;16.688;2022-09-09T09:54:28;35.55;45.70
69464;DHT22;56665;41.106;16.688;2022-09-09T09:57:36;36.05;44.52
69464;DHT22;56665;41.106;16.688;2022-09-09T10:00:52;36.12;44.19
69464;DHT22;56665;41.106;16.688;2022-09-09T10:04:15;35.90;45.00
69464;DHT22;56665;41.106;16.688;2022-09-09T10:07:21;35.86;45.21
69464;DHT22;56665;41.106;16.688;2022-09-09T10:10:39;35.76;45.50
69464;DHT22;56665;41.106;16.688;2022-09-09T10:17:35;35.47;46.19
69464;DHT22;56665;41.106;16.688;2022-09-09T10:28:13;34.48;47.30
69464;DHT22;56665;41.106;16.688;2022-09-09T10:35:17;35.30;46.24
69464;DHT22;56665;41.106;16.688;2022-09-09T10:38:41;35.31;45.50
69464;DHT22;56665;41.106;16.688;2022-09-09T10:42:07;35.30;45.92
69464;DHT22;56665;41.106;16.688;2022-09-09T10:55:55;34.94;46.16
69464;DHT22;56665;41.106;16.688;2022-09-09T10:59:04;35.20;45.74
69464;DHT22;56665;41.106;16.688;2022-09-09T11:05:20;35.57;45.39
69464;DHT22;56665;41.106;16.688;2022-09-09T11:08:28;36.23;44.36
69464;DHT22;56665;41.106;16.688;2022-09-09T11:11:46;36.32;43.95
69464;DHT22;56665;41.106;16.688;2022-09-09T11:15:01;35.66;44.72
69464;DHT22;56665;41.106;16.688;2022-09-09T11:18:13;35.07;45.78
69464;DHT22;56665;41.106;16.688;2022-09-09T11:21:26;35.03;45.87
69464;DHT22;56665;41.106;16.688;2022-09-09T11:24:38;35.28;45.08
69464;DHT22;56665;41.106;16.688;2022-09-09T11:27:54;34.71;46.20
69464;DHT22;56665;41.106;16.688;2022-09-09T11:41:35;35.11;45.35
69464;DHT22;56665;41.106;16.688;2022-09-09T11:44:41;34.79;45.68
69464;DHT22;56665;41.106;16.688;2022-09-09T11:47:59;34.79;45.80
69464;DHT22;56665;41.106;16.688;2022-09-09T11:51:07;34.71;45.63
69464;DHT22;56665;41.106;16.688;2022-09-09T11:54:30;34.74;45.36
69464;DHT22;56665;41.106;16.688;2022-09-09T11:57:36;34.60;45.77
69464;DHT22;56665;41.106;16.688;2022-09-09T12:00:45;34.98;45.06
69464;DHT22;56665;41.106;16.688;2022-09-09T12:03:52;35.21;44.85
69464;DHT22;56665;41.106;16.688;2022-09-09T12:13:26;34.52;46.70
69464;DHT22;56665;41.106;16.688;2022-09-09T12:16:35;34.56;46.62
69464;DHT22;56665;41.106;16.688;2022-09-09T12:19:40;34.19;47.14
69464;DHT22;56665;41.106;16.688;2022-09-09T12:29:47;33.58;48.08
69464;DHT22;56665;41.106;16.688;2022-09-09T12:33:12;33.61;47.82
69464;DHT22;56665;41.106;16.688;2022-09-09T12:36:27;33.50;47.97
69464;DHT22;56665;41.106;16.688;2022-09-09T12:39:35;33.78;47.51
69464;DHT22;56665;41.106;16.688;2022-09-09T12:42:41;34.05;47.08
69464;DHT22;56665;41.106;16.688;2022-09-09T12:45:45;33.85;47.27
69464;DHT22;56665;41.106;16.688;2022-09-09T12:48:48;34.11;46.71
69464;DHT22;56665;41.106;16.688;2022-09-09T12:51:53;33.87;47.39
69464;DHT22;56665;41.106;16.688;2022-09-09T12:54:59;33.90;46.96
69464;DHT22;56665;41.106;16.688;2022-09-09T12:58:04;34.25;46.33
69464;DHT22;56665;41.106;16.688;2022-09-09T13:01:21;34.06;46.94
69464;DHT22;56665;41.106;16.688;2022-09-09T13:04:26;33.72;47.98
69464;DHT22;56665;41.106;16.688;2022-09-09T13:07:29;33.74;47.70
69464;DHT22;56665;41.106;16.688;2022-09-09T13:10:49;33.88;47.13
69464;DHT22;56665;41.106;16.688;2022-09-09T13:13:58;33.81;47.11
69464;DHT22;56665;41.106;16.688;2022-09-09T13:17:05;33.43;47.66
69464;DHT22;56665;41.106;16.688;2022-09-09T13:20:19;33.23;48.04
69464;DHT22;56665;41.106;16.688;2022-09-09T13:23:27;33.34;47.85
69464;DHT22;56665;41.106;16.688;2022-09-09T13:26:33;33.41;47.65
69464;DHT22;56665;41.106;16.688;2022-09-09T13:29:37;33.55;47.50
69464;DHT22;56665;41.106;16.688;2022-09-09T13:32:43;33.50;47.33
69464;DHT22;56665;41.106;16.688;2022-09-09T13:35:57;33.37;47.96
69464;DHT22;56665;41.106;16.688;2022-09-09T13:39:03;33.62;47.61
69464;DHT22;56665;41.106;16.688;2022-09-09T13:42:23;33.78;47.64
69464;DHT22;56665;41.106;16.688;2022-09-09T13:45:29;34.01;47.53
69464;DHT22;56665;41.106;16.688;2022-09-09T13:48:32;34.08;47.56
69464;DHT22;56665;41.106;16.688;2022-09-09T13:51:45;33.27;49.11
69464;DHT22;56665;41.106;16.688;2022-09-09T13:54:51;32.73;50.47
69464;DHT22;56665;41.106;16.688;2022-09-09T13:57:58;32.48;51.71
69464;DHT22;56665;41.106;16.688;2022-09-09T14:01:04;32.62;51.52
69464;DHT22;56665;41.106;16.688;2022-09-09T14:04:08;32.36;52.09
69464;DHT22;56665;41.106;16.688;2022-09-09T14:07:14;32.11;52.79
69464;DHT22;56665;41.106;16.688;2022-09-09T14:10:19;32.32;52.41
69464;DHT22;56665;41.106;16.688;2022-09-09T14:13:24;31.94;53.71
69464;DHT22;56665;41.106;16.688;2022-09-09T14:16:28;31.62;54.69
69464;DHT22;56665;41.106;16.688;2022-09-09T14:19:32;31.60;54.75
69464;DHT22;56665;41.106;16.688;2022-09-09T14:22:36;31.57;55.11
69464;DHT22;56665;41.106;16.688;2022-09-09T14:25:41;31.43;55.45
69464;DHT22;56665;41.106;16.688;2022-09-09T14:28:45;31.45;55.66
69464;DHT22;56665;41.106;16.688;2022-09-09T14:31:49;31.74;55.12
69464;DHT22;56665;41.106;16.688;2022-09-09T14:34:53;31.60;56.76
69464;DHT22;56665;41.106;16.688;2022-09-09T14:37:57;31.45;57.36
69464;DHT22;56665;41.106;16.688;2022-09-09T14:41:01;31.54;56.83
69464;DHT22;56665;41.106;16.688;2022-09-09T14:44:08;31.80;55.62
69464;DHT22;56665;41.106;16.688;2022-09-09T14:47:12;32.03;54.89
69464;DHT22;56665;41.106;16.688;2022-09-09T14:50:16;31.97;54.87
69464;DHT22;56665;41.106;16.688;2022-09-09T14:53:23;31.15;58.14
69464;DHT22;56665;41.106;16.688;2022-09-09T14:56:31;31.04;58.92
69464;DHT22;56665;41.106;16.688;2022-09-09T14:59:35;31.09;58.77
69464;DHT22;56665;41.106;16.688;2022-09-09T15:02:39;31.14;59.15
69464;DHT22;56665;41.106;16.688;2022-09-09T15:05:43;31.09;60.15
69464;DHT22;56665;41.106;16.688;2022-09-09T15:08:50;31.05;61.03
69464;DHT22;56665;41.106;16.688;2022-09-09T15:11:55;31.11;61.19
69464;DHT22;56665;41.106;16.688;2022-09-09T15:14:59;31.05;61.64
69464;DHT22;56665;41.106;16.688;2022-09-09T15:18:03;31.22;61.16
69464;DHT22;56665;41.106;16.688;2022-09-09T15:21:07;31.08;61.78
69464;DHT22;56665;41.106;16.688;2022-09-09T15:24:10;31.02;61.86
69464;DHT22;56665;41.106;16.688;2022-09-09T15:27:14;30.91;61.83
69464;DHT22;56665;41.106;16.688;2022-09-09T15:30:18;30.71;62.18
69464;DHT22;56665;41.106;16.688;2022-09-09T15:33:22;30.69;61.97
69464;DHT22;56665;41.106;16.688;2022-09-09T15:36:41;30.65;62.13
69464;DHT22;56665;41.106;16.688;2022-09-09T15:39:45;30.69;61.79
69464;DHT22;56665;41.106;16.688;2022-09-09T15:42:49;30.79;61.58
69464;DHT22;56665;41.106;16.688;2022-09-09T15:45:59;30.95;60.98
69464;DHT22;56665;41.106;16.688;2022-09-09T15:49:16;30.92;61.10
69464;DHT22;56665;41.106;16.688;2022-09-09T15:52:23;30.91;61.11
69464;DHT22;56665;41.106;16.688;2022-09-09T15:55:26;30.81;61.21
69464;DHT22;56665;41.106;16.688;2022-09-09T15:58:31;30.65;61.78
69464;DHT22;56665;41.106;16.688;2022-09-09T16:01:35;30.56;62.00
69464;DHT22;56665;41.106;16.688;2022-09-09T16:04:39;30.60;61.57
69464;DHT22;56665;41.106;16.688;2022-09-09T16:07:43;30.58;61.45
69464;DHT22;56665;41.106;16.688;2022-09-09T16:10:48;30.58;61.08
69464;DHT22;56665;41.106;16.688;2022-09-09T16:13:56;30.54;61.23
69464;DHT22;56665;41.106;16.688;2022-09-09T16:17:00;30.51;61.34
69464;DHT22;56665;41.106;16.688;2022-09-09T16:20:04;30.53;61.50
69464;DHT22;56665;41.106;16.688;2022-09-09T16:23:10;30.44;61.59
69464;DHT22;56665;41.106;16.688;2022-09-09T16:26:15;30.44;61.69
69464;DHT22;56665;41.106;16.688;2022-09-09T16:29:19;30.40;62.07
69464;DHT22;56665;41.106;16.688;2022-09-09T16:32:24;30.38;62.14
69464;DHT22;56665;41.106;16.688;2022-09-09T16:35:28;30.40;62.30
69464;DHT22;56665;41.106;16.688;2022-09-09T16:38:33;30.40;62.62
69464;DHT22;56665;41.106;16.688;2022-09-09T16:41:40;30.37;62.83
69464;DHT22;56665;41.106;16.688;2022-09-09T16:44:43;30.36;63.50
69464;DHT22;56665;41.106;16.688;2022-09-09T16:47:47;30.24;63.93
69464;DHT22;56665;41.106;16.688;2022-09-09T16:51:01;30.21;64.46
69464;DHT22;56665;41.106;16.688;2022-09-09T16:54:06;30.20;64.64
69464;DHT22;56665;41.106;16.688;2022-09-09T16:57:10;30.14;64.97
69464;DHT22;56665;41.106;16.688;2022-09-09T17:00:14;30.07;65.23
69464;DHT22;56665;41.106;16.688;2022-09-09T17:03:20;30.00;65.37
69464;DHT22;56665;41.106;16.688;2022-09-09T17:06:24;29.93;65.51
69464;DHT22;56665;41.106;16.688;2022-09-09T17:09:29;29.88;65.45
69464;DHT22;56665;41.106;16.688;2022-09-09T17:12:33;29.85;65.41
69464;DHT22;56665;41.106;16.688;2022-09-09T17:15:41;29.82;65.24
69464;DHT22;56665;41.106;16.688;2022-09-09T17:18:46;29.78;65.17
69464;DHT22;56665;41.106;16.688;2022-09-09T17:21:49;29.73;65.05
69464;DHT22;56665;41.106;16.688;2022-09-09T17:24:53;29.69;65.29
69464;DHT22;56665;41.106;16.688;2022-09-09T17:27:58;29.65;65.47
69464;DHT22;56665;41.106;16.688;2022-09-09T17:31:06;29.61;65.67
69464;DHT22;56665;41.106;16.688;2022-09-09T17:34:10;29.66;65.75
69464;DHT22;56665;41.106;16.688;2022-09-09T17:37:14;29.65;65.71
69464;DHT22;56665;41.106;16.688;2022-09-09T17:40:17;29.69;65.94
69464;DHT22;56665;41.106;16.688;2022-09-09T17:43:21;29.65;66.11
69464;DHT22;56665;41.106;16.688;2022-09-09T17:46:40;29.58;66.11
69464;DHT22;56665;41.106;16.688;2022-09-09T17:49:45;29.58;65.04
69464;DHT22;56665;41.106;16.688;2022-09-09T17:52:52;29.54;65.49
69464;DHT22;56665;41.106;16.688;2022-09-09T17:56:04;29.48;65.36
69464;DHT22;56665;41.106;16.688;2022-09-09T17:59:10;29.47;62.57
69464;DHT22;56665;41.106;16.688;2022-09-09T18:02:15;29.45;61.70
69464;DHT22;56665;41.106;16.688;2022-09-09T18:05:19;29.47;60.61
69464;DHT22;56665;41.106;16.688;2022-09-09T18:08:23;29.47;60.29
69464;DHT22;56665;41.106;16.688;2022-09-09T18:11:30;29.44;59.64
69464;DHT22;56665;41.106;16.688;2022-09-09T18:14:34;29.37;59.48
69464;DHT22;56665;41.106;16.688;2022-09-09T18:17:38;29.37;56.37
69464;DHT22;56665;41.106;16.688;2022-09-09T18:20:42;29.35;56.26
69464;DHT22;56665;41.106;16.688;2022-09-09T18:23:46;29.31;54.38
69464;DHT22;56665;41.106;16.688;2022-09-09T18:26:53;29.34;53.46
69464;DHT22;56665;41.106;16.688;2022-09-09T18:29:57;29.27;52.95
69464;DHT22;56665;41.106;16.688;2022-09-09T18:33:01;29.17;52.52
69464;DHT22;56665;41.106;16.688;2022-09-09T18:36:23;29.12;51.97
69464;DHT22;56665;41.106;16.688;2022-09-09T18:39:28;29.08;51.92
69464;DHT22;56665;41.106;16.688;2022-09-09T18:42:32;29.06;51.76
69464;DHT22;56665;41.106;16.688;2022-09-09T18:45:36;28.99;51.47
69464;DHT22;56665;41.106;16.688;2022-09-09T18:48:40;28.96;51.78
69464;DHT22;56665;41.106;16.688;2022-09-09T18:51:46;28.87;51.22
69464;DHT22;56665;41.106;16.688;2022-09-09T18:54:51;28.87;51.51
69464;DHT22;56665;41.106;16.688;2022-09-09T18:57:54;28.80;51.29
69464;DHT22;56665;41.106;16.688;2022-09-09T19:01:03;28.75;51.56
69464;DHT22;56665;41.106;16.688;2022-09-09T19:04:07;28.72;50.63
69464;DHT22;56665;41.106;16.688;2022-09-09T19:07:11;28.68;51.04
69464;DHT22;56665;41.106;16.688;2022-09-09T19:10:15;28.62;50.90
69464;DHT22;56665;41.106;16.688;2022-09-09T19:13:18;28.56;51.47
69464;DHT22;56665;41.106;16.688;2022-09-09T19:16:24;28.53;51.52
69464;DHT22;56665;41.106;16.688;2022-09-09T19:19:31;28.52;51.16
69464;DHT22;56665;41.106;16.688;2022-09-09T19:22:35;28.56;50.87
69464;DHT22;56665;41.106;16.688;2022-09-09T19:25:39;28.50;50.99
69464;DHT22;56665;41.106;16.688;2022-09-09T19:28:44;28.45;51.02
69464;DHT22;56665;41.106;16.688;2022-09-09T19:31:53;28.43;51.19
69464;DHT22;56665;41.106;16.688;2022-09-09T19:35:00;28.38;51.38
69464;DHT22;56665;41.106;16.688;2022-09-09T19:38:04;28.29;51.32
69464;DHT22;56665;41.106;16.688;2022-09-09T19:41:10;28.24;51.74
69464;DHT22;56665;41.106;16.688;2022-09-09T19:44:16;28.19;51.99
69464;DHT22;56665;41.106;16.688;2022-09-09T19:47:20;28.12;51.90
69464;DHT22;56665;41.106;16.688;2022-09-09T19:50:26;28.11;52.09
69464;DHT22;56665;41.106;16.688;2022-09-09T19:53:34;28.07;52.01
69464;DHT22;56665;41.106;16.688;2022-09-09T19:56:40;28.07;52.15
69464;DHT22;56665;41.106;16.688;2022-09-09T19:59:43;28.04;52.31
69464;DHT22;56665;41.106;16.688;2022-09-09T20:02:47;28.00;52.03
69464;DHT22;56665;41.106;16.688;2022-09-09T20:05:53;27.94;51.86
69464;DHT22;56665;41.106;16.688;2022-09-09T20:08:57;27.90;51.83
69464;DHT22;56665;41.106;16.688;2022-09-09T20:12:01;27.90;51.74
69464;DHT22;56665;41.106;16.688;2022-09-09T20:15:05;27.87;51.96
69464;DHT22;56665;41.106;16.688;2022-09-09T20:18:09;27.87;51.80
69464;DHT22;56665;41.106;16.688;2022-09-09T20:21:16;27.85;51.20
69464;DHT22;56665;41.106;16.688;2022-09-09T20:24:20;27.88;50.42
69464;DHT22;56665;41.106;16.688;2022-09-09T20:27:26;27.88;50.05
69464;DHT22;56665;41.106;16.688;2022-09-09T20:30:30;27.90;49.62
69464;DHT22;56665;41.106;16.688;2022-09-09T20:33:41;27.87;49.48
69464;DHT22;56665;41.106;16.688;2022-09-09T20:36:46;27.88;49.17
69464;DHT22;56665;41.106;16.688;2022-09-09T20:39:49;27.82;49.43
69464;DHT22;56665;41.106;16.688;2022-09-09T20:42:53;27.77;49.53
69464;DHT22;56665;41.106;16.688;2022-09-09T20:46:01;27.67;49.87
69464;DHT22;56665;41.106;16.688;2022-09-09T20:49:07;27.66;49.95
69464;DHT22;56665;41.106;16.688;2022-09-09T20:52:12;27.61;50.14
69464;DHT22;56665;41.106;16.688;2022-09-09T20:55:15;27.53;50.24
69464;DHT22;56665;41.106;16.688;2022-09-09T20:58:44;27.47;50.61
69464;DHT22;56665;41.106;16.688;2022-09-09T21:01:49;27.47;50.50
69464;DHT22;56665;41.106;16.688;2022-09-09T21:04:54;27.45;50.58
69464;DHT22;56665;41.106;16.688;2022-09-09T21:07:58;27.39;50.74